sensor_id;sensor_type;location;lat;lon;timestamp;temperature;humidity
32502;DHT22;18952;52.516;13.460;2024-03-02T00:00:40;9.60;74.90
32502;DHT22;18952;52.516;13.460;2024-03-02T00:03:07;9.60;74.80
32502;DHT22;18952;52.516;13.460;2024-03-02T00:05:35;9.60;74.80
32502;DHT22;18952;52.516;13.460;2024-03-02T00:08:05;9.60;74.90
32502;DHT22;18952;52.516;13.460;2024-03-02T00:10:40;9.60;74.80
32502;DHT22;18952;52.516;13.460;2024-03-02T00:13:09;9.70;74.90
32502;DHT22;18952;52.516;13.460;2024-03-02T00:15:54;9.60;75.10
32502;DHT22;18952;52.516;13.460;2024-03-02T00:18:33;9.70;74.80
32502;DHT22;18952;52.516;13.460;2024-03-02T00:21:03;9.70;75.00
32502;DHT22;18952;52.516;13.460;2024-03-02T00:23:31;9.70;75.00
32502;DHT22;18952;52.516;13.460;2024-03-02T00:25:59;9.80;74.80
32502;DHT22;18952;52.516;13.460;2024-03-02T00:28:35;9.80;74.70
32502;DHT22;18952;52.516;13.460;2024-03-02T00:31:13;9.90;74.70
32502;DHT22;18952;52.516;13.460;2024-03-02T00:33:48;9.90;74.90
32502;DHT22;18952;52.516;13.460;2024-03-02T00:36:24;9.90;74.80
32502;DHT22;18952;52.516;13.460;2024-03-02T00:38:56;9.80;74.60
32502;DHT22;18952;52.516;13.460;2024-03-02T00:41:30;9.80;75.10
32502;DHT22;18952;52.516;13.460;2024-03-02T00:44:05;9.90;75.10
32502;DHT22;18952;52.516;13.460;2024-03-02T00:46:39;9.90;75.10
32502;DHT22;18952;52.516;13.460;2024-03-02T00:49:27;10.00;75.30
32502;DHT22;18952;52.516;13.460;2024-03-02T00:51:56;10.00;75.20
32502;DHT22;18952;52.516;13.460;2024-03-02T00:54:26;10.00;75.20
32502;DHT22;18952;52.516;13.460;2024-03-02T00:56:56;9.90;75.20
32502;DHT22;18952;52.516;13.460;2024-03-02T00:59:25;10.00;75.00
32502;DHT22;18952;52.516;13.460;2024-03-02T01:01:55;10.00;74.90
32502;DHT22;18952;52.516;13.460;2024-03-02T01:04:23;10.00;75.70
32502;DHT22;18952;52.516;13.460;2024-03-02T01:06:51;10.00;75.50
32502;DHT22;18952;52.516;13.460;2024-03-02T01:09:17;10.00;75.40
32502;DHT22;18952;52.516;13.460;2024-03-02T01:11:46;10.00;75.40
32502;DHT22;18952;52.516;13.460;2024-03-02T01:14:14;10.00;75.30
32502;DHT22;18952;52.516;13.460;2024-03-02T01:16:43;10.00;75.50
32502;DHT22;18952;52.516;13.460;2024-03-02T01:19:13;10.10;75.70
32502;DHT22;18952;52.516;13.460;2024-03-02T01:21:40;10.10;75.80
32502;DHT22;18952;52.516;13.460;2024-03-02T01:24:08;10.10;76.00
32502;DHT22;18952;52.516;13.460;2024-03-02T01:26:35;10.10;76.10
32502;DHT22;18952;52.516;13.460;2024-03-02T01:29:05;10.10;75.80
32502;DHT22;18952;52.516;13.460;2024-03-02T01:31:32;10.10;76.00
32502;DHT22;18952;52.516;13.460;2024-03-02T01:34:00;10.10;76.40
32502;DHT22;18952;52.516;13.460;2024-03-02T01:36:28;10.10;76.20
32502;DHT22;18952;52.516;13.460;2024-03-02T01:38:57;10.10;76.30
32502;DHT22;18952;52.516;13.460;2024-03-02T01:41:24;10.10;76.30
32502;DHT22;18952;52.516;13.460;2024-03-02T01:43:55;10.10;76.40
32502;DHT22;18952;52.516;13.460;2024-03-02T01:46:23;10.10;76.50
32502;DHT22;18952;52.516;13.460;2024-03-02T01:48:51;10.10;76.60
32502;DHT22;18952;52.516;13.460;2024-03-02T01:51:19;10.10;76.60
32502;DHT22;18952;52.516;13.460;2024-03-02T01:53:47;10.10;76.70
32502;DHT22;18952;52.516;13.460;2024-03-02T01:56:13;10.10;77.20
32502;DHT22;18952;52.516;13.460;2024-03-02T01:58:41;10.10;77.40
32502;DHT22;18952;52.516;13.460;2024-03-02T02:01:08;10.10;77.40
32502;DHT22;18952;52.516;13.460;2024-03-02T02:03:36;10.10;77.50
32502;DHT22;18952;52.516;13.460;2024-03-02T02:06:04;10.00;77.30
32502;DHT22;18952;52.516;13.460;2024-03-02T02:08:32;10.10;77.50
32502;DHT22;18952;52.516;13.460;2024-03-02T02:11:00;10.10;77.70
32502;DHT22;18952;52.516;13.460;2024-03-02T02:13:28;10.00;77.50
32502;DHT22;18952;52.516;13.460;2024-03-02T02:16:07;10.10;77.70
32502;DHT22;18952;52.516;13.460;2024-03-02T02:18:35;10.10;77.70
32502;DHT22;18952;52.516;13.460;2024-03-02T02:21:03;10.00;78.00
32502;DHT22;18952;52.516;13.460;2024-03-02T02:23:33;10.00;78.20
32502;DHT22;18952;52.516;13.460;2024-03-02T02:26:01;10.10;78.20
32502;DHT22;18952;52.516;13.460;2024-03-02T02:28:29;10.10;78.20
32502;DHT22;18952;52.516;13.460;2024-03-02T02:30:57;10.00;78.00
32502;DHT22;18952;52.516;13.460;2024-03-02T02:33:26;10.00;78.20
32502;DHT22;18952;52.516;13.460;2024-03-02T02:35:54;10.00;78.30
32502;DHT22;18952;52.516;13.460;2024-03-02T02:38:22;10.00;78.20
32502;DHT22;18952;52.516;13.460;2024-03-02T02:40:52;10.00;78.50
32502;DHT22;18952;52.516;13.460;2024-03-02T02:43:19;10.00;78.70
32502;DHT22;18952;52.516;13.460;2024-03-02T02:45:47;10.00;78.40
32502;DHT22;18952;52.516;13.460;2024-03-02T02:48:13;10.00;78.70
32502;DHT22;18952;52.516;13.460;2024-03-02T02:50:41;10.00;78.50
32502;DHT22;18952;52.516;13.460;2024-03-02T02:53:09;9.90;78.70
32502;DHT22;18952;52.516;13.460;2024-03-02T02:55:37;9.90;78.60
32502;DHT22;18952;52.516;13.460;2024-03-02T02:58:07;9.90;78.90
32502;DHT22;18952;52.516;13.460;2024-03-02T03:00:34;9.90;78.80
32502;DHT22;18952;52.516;13.460;2024-03-02T03:03:02;9.90;79.20
32502;DHT22;18952;52.516;13.460;2024-03-02T03:05:30;9.90;79.30
32502;DHT22;18952;52.516;13.460;2024-03-02T03:07:57;9.90;79.30
32502;DHT22;18952;52.516;13.460;2024-03-02T03:10:24;9.90;79.20
32502;DHT22;18952;52.516;13.460;2024-03-02T03:12:51;9.90;79.10
32502;DHT22;18952;52.516;13.460;2024-03-02T03:15:18;10.00;79.10
32502;DHT22;18952;52.516;13.460;2024-03-02T03:17:46;9.90;79.20
32502;DHT22;18952;52.516;13.460;2024-03-02T03:20:14;9.90;79.00
32502;DHT22;18952;52.516;13.460;2024-03-02T03:22:42;9.90;79.20
32502;DHT22;18952;52.516;13.460;2024-03-02T03:25:11;10.00;79.30
32502;DHT22;18952;52.516;13.460;2024-03-02T03:27:39;10.00;79.40
32502;DHT22;18952;52.516;13.460;2024-03-02T03:33:02;9.90;79.60
32502;DHT22;18952;52.516;13.460;2024-03-02T03:35:30;10.00;79.60
32502;DHT22;18952;52.516;13.460;2024-03-02T03:37:58;10.00;79.50
32502;DHT22;18952;52.516;13.460;2024-03-02T03:40:25;10.00;79.50
32502;DHT22;18952;52.516;13.460;2024-03-02T03:42:53;10.00;79.30
32502;DHT22;18952;52.516;13.460;2024-03-02T03:45:20;10.00;79.50
32502;DHT22;18952;52.516;13.460;2024-03-02T03:47:46;10.00;79.30
32502;DHT22;18952;52.516;13.460;2024-03-02T03:50:15;10.00;79.30
32502;DHT22;18952;52.516;13.460;2024-03-02T03:52:43;10.00;79.20
32502;DHT22;18952;52.516;13.460;2024-03-02T03:55:15;10.00;79.10
32502;DHT22;18952;52.516;13.460;2024-03-02T03:57:43;10.00;79.50
32502;DHT22;18952;52.516;13.460;2024-03-02T04:00:14;10.00;79.60
32502;DHT22;18952;52.516;13.460;2024-03-02T04:02:42;10.00;79.50
32502;DHT22;18952;52.516;13.460;2024-03-02T04:05:09;10.00;79.60
32502;DHT22;18952;52.516;13.460;2024-03-02T04:07:37;10.10;79.60
32502;DHT22;18952;52.516;13.460;2024-03-02T04:10:12;10.10;79.60
32502;DHT22;18952;52.516;13.460;2024-03-02T04:12:40;10.10;79.60
32502;DHT22;18952;52.516;13.460;2024-03-02T04:15:12;10.10;79.60
32502;DHT22;18952;52.516;13.460;2024-03-02T04:17:40;10.10;79.50
32502;DHT22;18952;52.516;13.460;2024-03-02T04:20:08;10.10;79.50
32502;DHT22;18952;52.516;13.460;2024-03-02T04:22:35;10.10;79.60
32502;DHT22;18952;52.516;13.460;2024-03-02T04:25:02;10.10;79.60
32502;DHT22;18952;52.516;13.460;2024-03-02T04:27:29;10.10;79.70
32502;DHT22;18952;52.516;13.460;2024-03-02T04:29:56;10.10;79.80
32502;DHT22;18952;52.516;13.460;2024-03-02T04:32:26;10.10;79.70
32502;DHT22;18952;52.516;13.460;2024-03-02T04:34:54;10.10;79.80
32502;DHT22;18952;52.516;13.460;2024-03-02T04:37:21;10.10;79.60
32502;DHT22;18952;52.516;13.460;2024-03-02T04:39:48;10.10;79.80
32502;DHT22;18952;52.516;13.460;2024-03-02T04:42:19;10.10;79.70
32502;DHT22;18952;52.516;13.460;2024-03-02T04:44:45;10.10;80.30
32502;DHT22;18952;52.516;13.460;2024-03-02T04:47:13;10.10;79.80
32502;DHT22;18952;52.516;13.460;2024-03-02T04:49:41;10.10;79.70
32502;DHT22;18952;52.516;13.460;2024-03-02T04:52:09;10.10;79.80
32502;DHT22;18952;52.516;13.460;2024-03-02T04:54:41;10.10;79.90
32502;DHT22;18952;52.516;13.460;2024-03-02T04:57:08;10.10;80.00
32502;DHT22;18952;52.516;13.460;2024-03-02T04:59:35;10.10;80.00
32502;DHT22;18952;52.516;13.460;2024-03-02T05:02:03;10.10;80.00
32502;DHT22;18952;52.516;13.460;2024-03-02T05:04:29;10.10;80.00
32502;DHT22;18952;52.516;13.460;2024-03-02T05:06:58;10.10;79.80
32502;DHT22;18952;52.516;13.460;2024-03-02T05:09:25;10.10;80.00
32502;DHT22;18952;52.516;13.460;2024-03-02T05:11:52;10.10;80.20
32502;DHT22;18952;52.516;13.460;2024-03-02T05:14:20;10.10;80.10
32502;DHT22;18952;52.516;13.460;2024-03-02T05:16:51;10.10;80.10
32502;DHT22;18952;52.516;13.460;2024-03-02T05:19:21;10.10;80.10
32502;DHT22;18952;52.516;13.460;2024-03-02T05:21:48;10.20;80.20
32502;DHT22;18952;52.516;13.460;2024-03-02T05:24:18;10.10;80.30
32502;DHT22;18952;52.516;13.460;2024-03-02T05:26:46;10.10;80.30
32502;DHT22;18952;52.516;13.460;2024-03-02T05:29:13;10.00;80.30
32502;DHT22;18952;52.516;13.460;2024-03-02T05:31:41;10.00;80.70
32502;DHT22;18952;52.516;13.460;2024-03-02T05:34:09;10.00;80.70
32502;DHT22;18952;52.516;13.460;2024-03-02T05:36:38;9.90;80.90
32502;DHT22;18952;52.516;13.460;2024-03-02T05:39:05;10.00;81.00
32502;DHT22;18952;52.516;13.460;2024-03-02T05:41:32;9.90;81.10
32502;DHT22;18952;52.516;13.460;2024-03-02T05:43:59;9.90;81.00
32502;DHT22;18952;52.516;13.460;2024-03-02T05:46:27;9.90;81.20
32502;DHT22;18952;52.516;13.460;2024-03-02T05:48:55;9.90;81.10
32502;DHT22;18952;52.516;13.460;2024-03-02T05:51:23;9.90;81.20
32502;DHT22;18952;52.516;13.460;2024-03-02T05:53:50;9.80;81.30
32502;DHT22;18952;52.516;13.460;2024-03-02T05:56:18;9.80;81.60
32502;DHT22;18952;52.516;13.460;2024-03-02T05:58:45;9.80;81.50
32502;DHT22;18952;52.516;13.460;2024-03-02T06:01:12;9.80;81.40
32502;DHT22;18952;52.516;13.460;2024-03-02T06:03:39;9.80;81.00
32502;DHT22;18952;52.516;13.460;2024-03-02T06:06:06;9.90;81.20
32502;DHT22;18952;52.516;13.460;2024-03-02T06:08:34;9.80;81.00
32502;DHT22;18952;52.516;13.460;2024-03-02T06:11:01;9.70;81.00
32502;DHT22;18952;52.516;13.460;2024-03-02T06:13:31;9.60;81.60
32502;DHT22;18952;52.516;13.460;2024-03-02T06:16:01;9.50;82.00
32502;DHT22;18952;52.516;13.460;2024-03-02T06:18:31;9.60;82.00
32502;DHT22;18952;52.516;13.460;2024-03-02T06:21:03;9.60;81.60
32502;DHT22;18952;52.516;13.460;2024-03-02T06:23:31;9.60;81.20
32502;DHT22;18952;52.516;13.460;2024-03-02T06:26:01;9.60;81.50
32502;DHT22;18952;52.516;13.460;2024-03-02T06:28:31;9.60;81.30
32502;DHT22;18952;52.516;13.460;2024-03-02T06:31:03;9.60;80.90
32502;DHT22;18952;52.516;13.460;2024-03-02T06:33:32;9.60;81.00
32502;DHT22;18952;52.516;13.460;2024-03-02T06:36:00;9.60;81.10
32502;DHT22;18952;52.516;13.460;2024-03-02T06:38:28;9.50;81.30
32502;DHT22;18952;52.516;13.460;2024-03-02T06:40:56;9.50;81.00
32502;DHT22;18952;52.516;13.460;2024-03-02T06:43:24;9.60;81.10
32502;DHT22;18952;52.516;13.460;2024-03-02T06:45:53;9.70;81.20
32502;DHT22;18952;52.516;13.460;2024-03-02T06:48:21;9.70;80.80
32502;DHT22;18952;52.516;13.460;2024-03-02T06:50:53;9.70;80.40
32502;DHT22;18952;52.516;13.460;2024-03-02T06:53:21;9.70;80.10
32502;DHT22;18952;52.516;13.460;2024-03-02T06:55:51;9.80;80.40
32502;DHT22;18952;52.516;13.460;2024-03-02T06:58:19;9.80;80.00
32502;DHT22;18952;52.516;13.460;2024-03-02T07:00:47;9.90;80.00
32502;DHT22;18952;52.516;13.460;2024-03-02T07:03:13;9.90;79.80
32502;DHT22;18952;52.516;13.460;2024-03-02T07:05:42;9.90;79.80
32502;DHT22;18952;52.516;13.460;2024-03-02T07:08:09;10.00;79.60
32502;DHT22;18952;52.516;13.460;2024-03-02T07:10:37;10.00;79.50
32502;DHT22;18952;52.516;13.460;2024-03-02T07:13:03;10.00;79.40
32502;DHT22;18952;52.516;13.460;2024-03-02T07:15:32;10.00;79.50
32502;DHT22;18952;52.516;13.460;2024-03-02T07:18:00;10.00;79.10
32502;DHT22;18952;52.516;13.460;2024-03-02T07:20:27;10.00;79.20
32502;DHT22;18952;52.516;13.460;2024-03-02T07:22:55;10.10;79.00
32502;DHT22;18952;52.516;13.460;2024-03-02T07:25:22;10.10;78.80
32502;DHT22;18952;52.516;13.460;2024-03-02T07:27:53;10.10;78.60
32502;DHT22;18952;52.516;13.460;2024-03-02T07:30:21;10.10;78.50
32502;DHT22;18952;52.516;13.460;2024-03-02T07:32:50;10.20;78.50
32502;DHT22;18952;52.516;13.460;2024-03-02T07:35:17;10.30;78.20
32502;DHT22;18952;52.516;13.460;2024-03-02T07:37:45;10.20;77.90
32502;DHT22;18952;52.516;13.460;2024-03-02T07:40:13;10.20;77.80
32502;DHT22;18952;52.516;13.460;2024-03-02T07:42:40;10.30;77.90
32502;DHT22;18952;52.516;13.460;2024-03-02T07:45:08;10.20;77.70
32502;DHT22;18952;52.516;13.460;2024-03-02T07:47:36;10.30;77.70
32502;DHT22;18952;52.516;13.460;2024-03-02T07:50:03;10.20;77.90
32502;DHT22;18952;52.516;13.460;2024-03-02T07:52:32;10.20;78.00
32502;DHT22;18952;52.516;13.460;2024-03-02T07:55:00;10.30;77.70
32502;DHT22;18952;52.516;13.460;2024-03-02T07:57:27;10.40;77.60
32502;DHT22;18952;52.516;13.460;2024-03-02T07:59:55;10.40;77.10
32502;DHT22;18952;52.516;13.460;2024-03-02T08:02:25;10.40;77.30
32502;DHT22;18952;52.516;13.460;2024-03-02T08:04:57;10.40;77.30
32502;DHT22;18952;52.516;13.460;2024-03-02T08:07:25;10.40;77.30
32502;DHT22;18952;52.516;13.460;2024-03-02T08:09:55;10.30;76.80
32502;DHT22;18952;52.516;13.460;2024-03-02T08:12:24;10.40;77.30
32502;DHT22;18952;52.516;13.460;2024-03-02T08:14:52;10.40;77.30
32502;DHT22;18952;52.516;13.460;2024-03-02T08:17:19;10.40;77.00
32502;DHT22;18952;52.516;13.460;2024-03-02T08:19:47;10.40;77.00
32502;DHT22;18952;52.516;13.460;2024-03-02T08:22:15;10.50;77.20
32502;DHT22;18952;52.516;13.460;2024-03-02T08:24:43;10.40;76.60
32502;DHT22;18952;52.516;13.460;2024-03-02T08:27:13;10.50;76.80
32502;DHT22;18952;52.516;13.460;2024-03-02T08:29:40;10.50;77.30
32502;DHT22;18952;52.516;13.460;2024-03-02T08:32:10;10.50;76.10
32502;DHT22;18952;52.516;13.460;2024-03-02T08:34:41;10.50;76.40
32502;DHT22;18952;52.516;13.460;2024-03-02T08:37:07;10.50;76.60
32502;DHT22;18952;52.516;13.460;2024-03-02T08:39:36;10.50;76.40
32502;DHT22;18952;52.516;13.460;2024-03-02T08:42:03;10.60;76.20
32502;DHT22;18952;52.516;13.460;2024-03-02T08:44:31;10.60;75.90
32502;DHT22;18952;52.516;13.460;2024-03-02T08:46:58;10.60;75.80
32502;DHT22;18952;52.516;13.460;2024-03-02T08:49:27;10.50;75.00
32502;DHT22;18952;52.516;13.460;2024-03-02T08:51:55;10.60;75.50
32502;DHT22;18952;52.516;13.460;2024-03-02T08:54:22;10.60;75.20
32502;DHT22;18952;52.516;13.460;2024-03-02T08:56:54;10.60;75.40
32502;DHT22;18952;52.516;13.460;2024-03-02T08:59:22;10.60;75.50
32502;DHT22;18952;52.516;13.460;2024-03-02T09:01:50;10.60;75.30
32502;DHT22;18952;52.516;13.460;2024-03-02T09:04:20;10.60;75.00
32502;DHT22;18952;52.516;13.460;2024-03-02T09:06:51;10.70;74.90
32502;DHT22;18952;52.516;13.460;2024-03-02T09:09:21;10.80;75.10
32502;DHT22;18952;52.516;13.460;2024-03-02T09:11:51;10.80;74.90
32502;DHT22;18952;52.516;13.460;2024-03-02T09:14:22;10.80;74.80
32502;DHT22;18952;52.516;13.460;2024-03-02T09:16:50;10.90;74.80
32502;DHT22;18952;52.516;13.460;2024-03-02T09:19:17;10.90;74.70
32502;DHT22;18952;52.516;13.460;2024-03-02T09:21:45;10.90;74.80
32502;DHT22;18952;52.516;13.460;2024-03-02T09:24:13;10.90;74.80
32502;DHT22;18952;52.516;13.460;2024-03-02T09:26:45;10.90;74.30
32502;DHT22;18952;52.516;13.460;2024-03-02T09:29:13;10.90;74.30
32502;DHT22;18952;52.516;13.460;2024-03-02T09:31:44;10.90;74.20
32502;DHT22;18952;52.516;13.460;2024-03-02T09:34:12;10.90;74.10
32502;DHT22;18952;52.516;13.460;2024-03-02T09:36:44;10.80;74.20
32502;DHT22;18952;52.516;13.460;2024-03-02T09:39:16;10.90;74.20
32502;DHT22;18952;52.516;13.460;2024-03-02T09:41:43;11.00;73.70
32502;DHT22;18952;52.516;13.460;2024-03-02T09:44:11;11.10;73.30
32502;DHT22;18952;52.516;13.460;2024-03-02T09:46:38;11.10;72.50
32502;DHT22;18952;52.516;13.460;2024-03-02T09:49:05;11.20;72.70
32502;DHT22;18952;52.516;13.460;2024-03-02T09:51:33;11.20;73.00
32502;DHT22;18952;52.516;13.460;2024-03-02T09:54:01;11.30;72.50
32502;DHT22;18952;52.516;13.460;2024-03-02T09:56:44;11.40;72.30
32502;DHT22;18952;52.516;13.460;2024-03-02T09:59:12;11.40;71.90
32502;DHT22;18952;52.516;13.460;2024-03-02T10:01:40;11.40;71.80
32502;DHT22;18952;52.516;13.460;2024-03-02T10:04:27;11.50;71.20
32502;DHT22;18952;52.516;13.460;2024-03-02T10:07:16;11.50;70.80
32502;DHT22;18952;52.516;13.460;2024-03-02T10:09:46;11.50;70.80
32502;DHT22;18952;52.516;13.460;2024-03-02T10:12:16;11.60;70.90
32502;DHT22;18952;52.516;13.460;2024-03-02T10:14:47;11.70;70.40
32502;DHT22;18952;52.516;13.460;2024-03-02T10:17:16;11.90;70.00
32502;DHT22;18952;52.516;13.460;2024-03-02T10:19:44;12.00;69.80
32502;DHT22;18952;52.516;13.460;2024-03-02T10:22:14;12.10;69.00
32502;DHT22;18952;52.516;13.460;2024-03-02T10:24:43;12.20;69.00
32502;DHT22;18952;52.516;13.460;2024-03-02T10:27:27;12.30;68.50
32502;DHT22;18952;52.516;13.460;2024-03-02T10:29:55;12.30;68.40
32502;DHT22;18952;52.516;13.460;2024-03-02T10:32:26;12.30;68.10
32502;DHT22;18952;52.516;13.460;2024-03-02T10:34:55;12.40;67.80
32502;DHT22;18952;52.516;13.460;2024-03-02T10:37:24;12.40;68.10
32502;DHT22;18952;52.516;13.460;2024-03-02T10:39:52;12.60;67.60
32502;DHT22;18952;52.516;13.460;2024-03-02T10:42:19;12.60;67.20
32502;DHT22;18952;52.516;13.460;2024-03-02T10:44:48;12.60;66.80
32502;DHT22;18952;52.516;13.460;2024-03-02T10:47:15;12.60;66.40
32502;DHT22;18952;52.516;13.460;2024-03-02T10:49:47;12.60;66.00
32502;DHT22;18952;52.516;13.460;2024-03-02T10:52:19;12.80;66.20
32502;DHT22;18952;52.516;13.460;2024-03-02T10:54:46;12.70;65.20
32502;DHT22;18952;52.516;13.460;2024-03-02T10:57:21;12.80;64.90
32502;DHT22;18952;52.516;13.460;2024-03-02T11:00:03;12.90;64.50
32502;DHT22;18952;52.516;13.460;2024-03-02T11:02:31;13.10;63.90
32502;DHT22;18952;52.516;13.460;2024-03-02T11:05:07;13.10;63.70
32502;DHT22;18952;52.516;13.460;2024-03-02T11:07:38;13.10;63.30
32502;DHT22;18952;52.516;13.460;2024-03-02T11:10:08;13.20;63.00
32502;DHT22;18952;52.516;13.460;2024-03-02T11:12:48;13.30;63.00
32502;DHT22;18952;52.516;13.460;2024-03-02T11:15:18;13.10;62.10
32502;DHT22;18952;52.516;13.460;2024-03-02T11:17:47;13.10;62.60
32502;DHT22;18952;52.516;13.460;2024-03-02T11:20:17;13.20;61.90
32502;DHT22;18952;52.516;13.460;2024-03-02T11:22:46;13.30;61.50
32502;DHT22;18952;52.516;13.460;2024-03-02T11:25:27;13.20;60.70
32502;DHT22;18952;52.516;13.460;2024-03-02T11:33:07;13.30;61.00
32502;DHT22;18952;52.516;13.460;2024-03-02T11:35:37;13.50;61.10
32502;DHT22;18952;52.516;13.460;2024-03-02T11:38:04;13.50;61.00
32502;DHT22;18952;52.516;13.460;2024-03-02T11:40:34;13.60;60.80
32502;DHT22;18952;52.516;13.460;2024-03-02T11:43:02;13.60;61.10
32502;DHT22;18952;52.516;13.460;2024-03-02T11:45:30;13.70;60.60
32502;DHT22;18952;52.516;13.460;2024-03-02T11:47:57;13.70;60.10
32502;DHT22;18952;52.516;13.460;2024-03-02T11:50:51;13.80;59.70
32502;DHT22;18952;52.516;13.460;2024-03-02T11:53:20;14.00;59.50
32502;DHT22;18952;52.516;13.460;2024-03-02T11:55:49;14.10;59.50
32502;DHT22;18952;52.516;13.460;2024-03-02T11:58:18;14.10;59.90
32502;DHT22;18952;52.516;13.460;2024-03-02T12:00:44;14.10;59.10
32502;DHT22;18952;52.516;13.460;2024-03-02T12:03:15;14.20;58.90
32502;DHT22;18952;52.516;13.460;2024-03-02T12:05:43;14.20;58.90
32502;DHT22;18952;52.516;13.460;2024-03-02T12:08:12;14.30;58.80
32502;DHT22;18952;52.516;13.460;2024-03-02T12:10:40;14.40;58.40
32502;DHT22;18952;52.516;13.460;2024-03-02T12:13:08;14.50;58.10
32502;DHT22;18952;52.516;13.460;2024-03-02T12:15:38;14.60;57.30
32502;DHT22;18952;52.516;13.460;2024-03-02T12:18:06;14.70;57.00
32502;DHT22;18952;52.516;13.460;2024-03-02T12:20:33;14.80;57.40
32502;DHT22;18952;52.516;13.460;2024-03-02T12:23:04;14.80;56.20
32502;DHT22;18952;52.516;13.460;2024-03-02T12:25:33;14.80;55.20
32502;DHT22;18952;52.516;13.460;2024-03-02T12:28:03;14.60;55.70
32502;DHT22;18952;52.516;13.460;2024-03-02T12:30:35;14.60;55.40
32502;DHT22;18952;52.516;13.460;2024-03-02T12:33:06;14.80;55.40
32502;DHT22;18952;52.516;13.460;2024-03-02T12:35:36;14.80;55.60
32502;DHT22;18952;52.516;13.460;2024-03-02T12:38:03;14.80;55.40
32502;DHT22;18952;52.516;13.460;2024-03-02T12:40:32;14.80;55.70
32502;DHT22;18952;52.516;13.460;2024-03-02T12:42:58;14.70;55.90
32502;DHT22;18952;52.516;13.460;2024-03-02T12:45:27;14.80;56.20
32502;DHT22;18952;52.516;13.460;2024-03-02T12:47:54;15.10;55.60
32502;DHT22;18952;52.516;13.460;2024-03-02T12:50:22;15.20;55.20
32502;DHT22;18952;52.516;13.460;2024-03-02T12:52:53;15.40;54.20
32502;DHT22;18952;52.516;13.460;2024-03-02T12:55:23;15.60;53.90
32502;DHT22;18952;52.516;13.460;2024-03-02T12:57:52;15.70;53.20
32502;DHT22;18952;52.516;13.460;2024-03-02T13:00:20;15.80;52.60
32502;DHT22;18952;52.516;13.460;2024-03-02T13:02:52;15.90;51.70
32502;DHT22;18952;52.516;13.460;2024-03-02T13:05:20;15.80;51.40
32502;DHT22;18952;52.516;13.460;2024-03-02T13:07:52;15.80;51.70
32502;DHT22;18952;52.516;13.460;2024-03-02T13:10:20;15.80;51.20
32502;DHT22;18952;52.516;13.460;2024-03-02T13:12:48;16.00;51.10
32502;DHT22;18952;52.516;13.460;2024-03-02T13:15:15;16.00;50.90
32502;DHT22;18952;52.516;13.460;2024-03-02T13:17:45;15.80;51.20
32502;DHT22;18952;52.516;13.460;2024-03-02T13:20:15;15.70;51.80
32502;DHT22;18952;52.516;13.460;2024-03-02T13:22:46;15.80;51.80
32502;DHT22;18952;52.516;13.460;2024-03-02T13:25:13;16.00;51.80
32502;DHT22;18952;52.516;13.460;2024-03-02T13:27:41;16.10;50.80
32502;DHT22;18952;52.516;13.460;2024-03-02T13:30:08;16.10;50.60
32502;DHT22;18952;52.516;13.460;2024-03-02T13:32:36;15.90;51.50
32502;DHT22;18952;52.516;13.460;2024-03-02T13:35:04;15.80;51.70
32502;DHT22;18952;52.516;13.460;2024-03-02T13:37:32;15.70;51.90
32502;DHT22;18952;52.516;13.460;2024-03-02T13:39:59;15.50;52.20
32502;DHT22;18952;52.516;13.460;2024-03-02T13:42:26;15.50;52.30
32502;DHT22;18952;52.516;13.460;2024-03-02T13:44:55;15.40;52.30
32502;DHT22;18952;52.516;13.460;2024-03-02T13:47:25;15.60;52.10
32502;DHT22;18952;52.516;13.460;2024-03-02T13:49:53;15.80;51.90
32502;DHT22;18952;52.516;13.460;2024-03-02T13:52:21;16.10;50.80
32502;DHT22;18952;52.516;13.460;2024-03-02T13:54:49;16.20;49.90
32502;DHT22;18952;52.516;13.460;2024-03-02T13:57:15;16.20;49.50
32502;DHT22;18952;52.516;13.460;2024-03-02T13:59:46;16.20;49.20
32502;DHT22;18952;52.516;13.460;2024-03-02T14:02:17;16.30;49.50
32502;DHT22;18952;52.516;13.460;2024-03-02T14:04:44;16.50;49.50
32502;DHT22;18952;52.516;13.460;2024-03-02T14:07:12;16.60;48.70
32502;DHT22;18952;52.516;13.460;2024-03-02T14:09:40;16.80;48.10
32502;DHT22;18952;52.516;13.460;2024-03-02T14:12:07;16.80;47.60
32502;DHT22;18952;52.516;13.460;2024-03-02T14:14:35;16.80;47.50
32502;DHT22;18952;52.516;13.460;2024-03-02T14:17:02;16.70;47.90
32502;DHT22;18952;52.516;13.460;2024-03-02T14:19:29;16.70;48.00
32502;DHT22;18952;52.516;13.460;2024-03-02T14:21:56;16.70;48.40
32502;DHT22;18952;52.516;13.460;2024-03-02T14:24:25;16.70;48.30
32502;DHT22;18952;52.516;13.460;2024-03-02T14:26:54;16.70;48.40
32502;DHT22;18952;52.516;13.460;2024-03-02T14:29:38;16.70;48.20
32502;DHT22;18952;52.516;13.460;2024-03-02T14:32:06;16.70;48.80
32502;DHT22;18952;52.516;13.460;2024-03-02T14:34:35;16.70;48.20
32502;DHT22;18952;52.516;13.460;2024-03-02T14:37:04;16.80;48.40
32502;DHT22;18952;52.516;13.460;2024-03-02T14:39:35;16.80;48.20
32502;DHT22;18952;52.516;13.460;2024-03-02T14:42:05;16.90;48.00
32502;DHT22;18952;52.516;13.460;2024-03-02T14:44:35;16.90;48.00
32502;DHT22;18952;52.516;13.460;2024-03-02T14:47:02;16.90;47.90
32502;DHT22;18952;52.516;13.460;2024-03-02T14:49:31;16.90;47.50
32502;DHT22;18952;52.516;13.460;2024-03-02T14:51:58;16.80;48.00
32502;DHT22;18952;52.516;13.460;2024-03-02T14:54:25;16.80;48.40
32502;DHT22;18952;52.516;13.460;2024-03-02T14:56:53;16.80;48.80
32502;DHT22;18952;52.516;13.460;2024-03-02T14:59:23;16.70;49.30
32502;DHT22;18952;52.516;13.460;2024-03-02T15:05:07;16.50;49.60
32502;DHT22;18952;52.516;13.460;2024-03-02T15:07:36;16.30;49.60
32502;DHT22;18952;52.516;13.460;2024-03-02T15:10:03;16.20;49.40
32502;DHT22;18952;52.516;13.460;2024-03-02T15:12:33;16.00;49.30
32502;DHT22;18952;52.516;13.460;2024-03-02T15:15:04;15.90;49.50
32502;DHT22;18952;52.516;13.460;2024-03-02T15:17:31;15.90;49.60
32502;DHT22;18952;52.516;13.460;2024-03-02T15:20:03;15.80;49.80
32502;DHT22;18952;52.516;13.460;2024-03-02T15:22:31;15.80;50.20
32502;DHT22;18952;52.516;13.460;2024-03-02T15:24:59;15.70;50.60
32502;DHT22;18952;52.516;13.460;2024-03-02T15:27:28;15.70;50.80
32502;DHT22;18952;52.516;13.460;2024-03-02T15:29:54;15.60;50.90
32502;DHT22;18952;52.516;13.460;2024-03-02T15:32:23;15.60;50.80
32502;DHT22;18952;52.516;13.460;2024-03-02T15:34:51;15.60;51.20
32502;DHT22;18952;52.516;13.460;2024-03-02T15:37:19;15.50;51.70
32502;DHT22;18952;52.516;13.460;2024-03-02T15:39:47;15.50;52.10